EZS35KD LFSB-EKCH
Flight info
| Callsign | EZS35KD |
|---|---|
| Flight time | N/A |
| Altitude | 35000 |
| Route | DCT ELBEG Y715 HEUSE N851 TEDGO DCT HAREM DCT LOHRE DCT BERXO DCT MAKEL N851 GESKA Z711 MONAK MONAK5A |
| Aircraft | A320/M-SDE3FGHIRWY/LB1 |
Departure
| Time | N/A |
|---|---|
| Airport | EuroAirport Basel–Mulhouse–Freiburg (LFSB) |
Arrival
| Time | 2026-04-30 20:42 |
|---|---|
| Airport | Copenhagen Kastrup Airport (EKCH) |
| Time | Latitude | Longitude | Altitude | Speed | Heading |
|---|---|---|---|---|---|
| 2026-04-30 20:03 | 51.89962 | 10.25897 | 35441 ft | 427 kts | 20° |
| 2026-04-30 20:03 | 51.92567 | 10.27380 | 35440 ft | 427 kts | 20° |
| 2026-04-30 20:04 | 51.98183 | 10.30575 | 35441 ft | 427 kts | 20° |
| 2026-04-30 20:05 | 52.06562 | 10.35358 | 35460 ft | 427 kts | 20° |
| 2026-04-30 20:05 | 52.14972 | 10.40178 | 35450 ft | 426 kts | 20° |
| 2026-04-30 20:06 | 52.20567 | 10.43393 | 35447 ft | 426 kts | 20° |
| 2026-04-30 20:06 | 52.26157 | 10.46618 | 35445 ft | 426 kts | 20° |
| 2026-04-30 20:07 | 52.31753 | 10.49861 | 35443 ft | 426 kts | 20° |
| 2026-04-30 20:08 | 52.40120 | 10.54711 | 35438 ft | 427 kts | 20° |
| 2026-04-30 20:08 | 52.45717 | 10.57965 | 35438 ft | 427 kts | 20° |
| 2026-04-30 20:09 | 52.51320 | 10.61240 | 35439 ft | 427 kts | 20° |
| 2026-04-30 20:09 | 52.59720 | 10.66151 | 35435 ft | 428 kts | 20° |
| 2026-04-30 20:10 | 52.68126 | 10.71106 | 35436 ft | 428 kts | 20° |
| 2026-04-30 20:11 | 52.76542 | 10.76063 | 35437 ft | 428 kts | 20° |
| 2026-04-30 20:11 | 52.82149 | 10.79380 | 35436 ft | 428 kts | 20° |
| 2026-04-30 20:12 | 52.90569 | 10.84398 | 35437 ft | 429 kts | 20° |
| 2026-04-30 20:13 | 52.96183 | 10.87744 | 35441 ft | 429 kts | 20° |
| 2026-04-30 20:13 | 53.01806 | 10.91106 | 35442 ft | 429 kts | 20° |
| 2026-04-30 20:14 | 53.07414 | 10.94472 | 35443 ft | 429 kts | 20° |
| 2026-04-30 20:14 | 53.12994 | 10.97829 | 35443 ft | 429 kts | 20° |
| 2026-04-30 20:15 | 53.18613 | 11.01213 | 35441 ft | 429 kts | 20° |
| 2026-04-30 20:15 | 53.24227 | 11.04610 | 35446 ft | 429 kts | 20° |
| 2026-04-30 20:16 | 53.29842 | 11.07999 | 35443 ft | 429 kts | 20° |
| 2026-04-30 20:16 | 53.35458 | 11.11425 | 35442 ft | 429 kts | 20° |
| 2026-04-30 20:17 | 53.40123 | 11.14287 | 35441 ft | 429 kts | 20° |
| 2026-04-30 20:17 | 53.45741 | 11.17726 | 35443 ft | 430 kts | 20° |
| 2026-04-30 20:18 | 53.52281 | 11.21734 | 35251 ft | 431 kts | 19° |
| 2026-04-30 20:18 | 53.54181 | 11.22899 | 35096 ft | 431 kts | 19° |
| 2026-04-30 20:18 | 53.56998 | 11.24629 | 34692 ft | 431 kts | 19° |
| 2026-04-30 20:18 | 53.59831 | 11.26371 | 33784 ft | 433 kts | 19° |
| 2026-04-30 20:19 | 53.62652 | 11.28109 | 33078 ft | 430 kts | 20° |
| 2026-04-30 20:19 | 53.65445 | 11.29836 | 32443 ft | 425 kts | 20° |
| 2026-04-30 20:19 | 53.68240 | 11.31571 | 31385 ft | 430 kts | 20° |
| 2026-04-30 20:19 | 53.71024 | 11.33299 | 30481 ft | 432 kts | 20° |
| 2026-04-30 20:20 | 53.73849 | 11.35053 | 29296 ft | 434 kts | 20° |
| 2026-04-30 20:20 | 53.76684 | 11.36818 | 28698 ft | 435 kts | 20° |
| 2026-04-30 20:20 | 53.79537 | 11.38593 | 28476 ft | 437 kts | 20° |
| 2026-04-30 20:21 | 53.85248 | 11.42144 | 28437 ft | 438 kts | 20° |
| 2026-04-30 20:21 | 53.90966 | 11.45722 | 28439 ft | 438 kts | 20° |
| 2026-04-30 20:22 | 53.96688 | 11.49320 | 28437 ft | 438 kts | 20° |
| 2026-04-30 20:22 | 54.02406 | 11.52921 | 28437 ft | 438 kts | 20° |
| 2026-04-30 20:23 | 54.08139 | 11.56525 | 28439 ft | 438 kts | 20° |
| 2026-04-30 20:23 | 54.13867 | 11.60154 | 28439 ft | 439 kts | 20° |
| 2026-04-30 20:24 | 54.19586 | 11.63793 | 28441 ft | 439 kts | 20° |
| 2026-04-30 20:24 | 54.25310 | 11.67433 | 28437 ft | 439 kts | 20° |
| 2026-04-30 20:25 | 54.33853 | 11.72899 | 28440 ft | 439 kts | 20° |
| 2026-04-30 20:26 | 54.42444 | 11.78424 | 28437 ft | 439 kts | 20° |
| 2026-04-30 20:26 | 54.48125 | 11.82263 | 26777 ft | 441 kts | 23° |
| 2026-04-30 20:26 | 54.50948 | 11.84435 | 25195 ft | 449 kts | 25° |
| 2026-04-30 20:27 | 54.56642 | 11.89105 | 22910 ft | 447 kts | 26° |
| 2026-04-30 20:27 | 54.62015 | 11.93640 | 22187 ft | 418 kts | 30° |
| 2026-04-30 20:28 | 54.66781 | 11.99044 | 20813 ft | 407 kts | 33° |
| 2026-04-30 20:28 | 54.71448 | 12.04431 | 19517 ft | 398 kts | 33° |
| 2026-04-30 20:29 | 54.76014 | 12.09711 | 18264 ft | 390 kts | 34° |
| 2026-04-30 20:30 | 54.82342 | 12.17081 | 16700 ft | 375 kts | 34° |
| 2026-04-30 20:30 | 54.87665 | 12.23278 | 15441 ft | 364 kts | 34° |
| 2026-04-30 20:31 | 54.91937 | 12.28272 | 14426 ft | 355 kts | 35° |
| 2026-04-30 20:32 | 54.99151 | 12.32088 | 12070 ft | 379 kts | 8° |
| 2026-04-30 20:32 | 55.04406 | 12.33040 | 10899 ft | 376 kts | 7° |
| 2026-04-30 20:33 | 55.06940 | 12.33488 | 10747 ft | 357 kts | 7° |
| 2026-04-30 20:33 | 55.11645 | 12.34354 | 10523 ft | 324 kts | 7° |
| 2026-04-30 20:33 | 55.13839 | 12.34770 | 10400 ft | 310 kts | 7° |
| 2026-04-30 20:34 | 55.17922 | 12.35556 | 10133 ft | 285 kts | 7° |
| 2026-04-30 20:34 | 55.21808 | 12.36306 | 9443 ft | 278 kts | 7° |
| 2026-04-30 20:35 | 55.23720 | 12.36668 | 8903 ft | 274 kts | 8° |
| 2026-04-30 20:35 | 55.25342 | 12.36977 | 8297 ft | 273 kts | 8° |
| 2026-04-30 20:35 | 55.29091 | 12.37697 | 6940 ft | 269 kts | 8° |
| 2026-04-30 20:36 | 55.30932 | 12.38054 | 6337 ft | 264 kts | 8° |
| 2026-04-30 20:36 | 55.32766 | 12.38407 | 5571 ft | 265 kts | 7° |
| 2026-04-30 20:36 | 55.36460 | 12.39124 | 4225 ft | 273 kts | 7° |
| 2026-04-30 20:37 | 55.38338 | 12.39488 | 3912 ft | 267 kts | 6° |
| 2026-04-30 20:37 | 55.40137 | 12.39834 | 3766 ft | 253 kts | 6° |
| 2026-04-30 20:37 | 55.41842 | 12.40159 | 3654 ft | 240 kts | 6° |
| 2026-04-30 20:37 | 55.43455 | 12.40468 | 3548 ft | 227 kts | 6° |
| 2026-04-30 20:38 | 55.44994 | 12.40766 | 3449 ft | 219 kts | 6° |
| 2026-04-30 20:38 | 55.46481 | 12.41261 | 3265 ft | 216 kts | 21° |
| 2026-04-30 20:38 | 55.47735 | 12.42685 | 3034 ft | 215 kts | 39° |
| 2026-04-30 20:39 | 55.49965 | 12.46114 | 2467 ft | 211 kts | 38° |
| 2026-04-30 20:39 | 55.51072 | 12.47814 | 2183 ft | 210 kts | 38° |
| 2026-04-30 20:39 | 55.52168 | 12.49497 | 1896 ft | 209 kts | 38° |
| 2026-04-30 20:40 | 55.54246 | 12.52693 | 1355 ft | 191 kts | 37° |
| 2026-04-30 20:40 | 55.55233 | 12.54211 | 1133 ft | 183 kts | 36° |
| 2026-04-30 20:40 | 55.56157 | 12.55626 | 903 ft | 169 kts | 34° |
| 2026-04-30 20:41 | 55.57776 | 12.58123 | 420 ft | 143 kts | 34° |
| 2026-04-30 20:41 | 55.58518 | 12.59259 | 235 ft | 140 kts | 36° |
| 2026-04-30 20:41 | 55.59245 | 12.60387 | 69 ft | 139 kts | 34° |
| 2026-04-30 20:41 | 55.59921 | 12.61427 | 23 ft | 112 kts | 42° |
| 2026-04-30 20:42 | 55.60431 | 12.62224 | 26 ft | 85 kts | 41° |
| 2026-04-30 20:42 | 55.60750 | 12.62706 | 31 ft | 46 kts | 36° |
| 2026-04-30 20:42 | 55.61175 | 12.62992 | 25 ft | 29 kts | 39° |
| 2026-04-30 20:43 | 55.61321 | 12.63220 | 24 ft | 29 kts | 41° |
| 2026-04-30 20:43 | 55.61475 | 12.63456 | 25 ft | 30 kts | 40° |
| 2026-04-30 20:43 | 55.61614 | 12.63671 | 25 ft | 25 kts | 40° |
| 2026-04-30 20:44 | 55.61894 | 12.64089 | 25 ft | 28 kts | 29° |
| 2026-04-30 20:44 | 55.62073 | 12.64239 | 26 ft | 29 kts | 25° |
| 2026-04-30 20:44 | 55.62404 | 12.64456 | 24 ft | 23 kts | 14° |
| 2026-04-30 20:45 | 55.62398 | 12.64748 | 26 ft | 14 kts | 124° |
| 2026-04-30 20:45 | 55.62348 | 12.64882 | 24 ft | 12 kts | 123° |
| 2026-04-30 20:45 | 55.62303 | 12.65002 | 24 ft | 11 kts | 122° |
| 2026-04-30 20:46 | 55.62357 | 12.65203 | 24 ft | 7 kts | 358° |
| 2026-04-30 20:46 | 55.62399 | 12.65201 | 25 ft | 6 kts | 359° |
| 2026-04-30 20:47 | 55.62441 | 12.65350 | 24 ft | 11 kts | 88° |
| 2026-04-30 20:47 | 55.62443 | 12.65482 | 24 ft | 10 kts | 89° |
| 2026-04-30 20:48 | 55.62445 | 12.65703 | 25 ft | 8 kts | 87° |
| 2026-04-30 20:48 | 55.62474 | 12.65759 | 24 ft | 6 kts | 8° |
| 2026-04-30 20:48 | 55.62511 | 12.65760 | 24 ft | 4 kts | 358° |
| 2026-04-30 20:48 | 55.62524 | 12.65759 | 24 ft | 1 kts | 358° |
| 2026-04-30 20:49 | 55.62527 | 12.65759 | 24 ft | 0 kts | 358° |